Time;durP1;ratioP1;P1;durP2;ratioP2;P2;SDS_P1;SDS_P2;PMS_P1;PMS_P2;Temp;Humidity;BMP_temperature;BMP_pressure;BME280_temperature;BME280_humidity;BME280_pressure;Samples;Min_cycle;Max_cycle;Signal;HPM_P1;HPM_P2
2022/07/02 00:01:09;;;;;;;;;2.33;2.33;;;;;19.14;48.48;101841.66;5077218;27;46582;-83
2022/07/02 00:03:37;;;;;;;;;2.00;2.00;;;;;19.01;48.65;101822.66;5078078;27;45532;-82
2022/07/02 00:06:04;;;;;;;;;4.00;3.33;;;;;19.12;48.45;101849.84;5087004;27;45430;-82
2022/07/02 00:08:31;;;;;;;;;2.00;2.00;;;;;19.07;48.03;101843.00;5076983;27;45577;-81
2022/07/02 00:10:58;;;;;;;;;3.00;3.00;;;;;18.94;48.30;101823.97;5075912;27;46554;-82
2022/07/02 00:13:25;;;;;;;;;2.67;2.00;;;;;19.02;48.14;101842.44;5081327;27;45461;-82
2022/07/02 00:15:51;;;;;;;;;2.67;1.00;;;;;18.98;48.53;101841.75;5090480;27;45392;-82
2022/07/02 00:18:18;;;;;;;;;3.00;1.00;;;;;18.92;48.88;101845.69;5091564;27;45494;-82
2022/07/02 00:20:45;;;;;;;;;2.33;2.33;;;;;18.94;49.04;101841.06;5089015;27;46137;-82
2022/07/02 00:23:11;;;;;;;;;3.00;2.00;;;;;18.93;48.78;101846.56;5091838;27;46123;-82
2022/07/02 00:25:42;;;;;;;;;3.67;2.67;;;;;18.73;48.83;101827.00;5078958;27;46421;-82
2022/07/02 00:28:11;;;;;;;;;3.67;2.67;;;;;18.87;48.91;101841.53;5091082;27;45541;-82
2022/07/02 00:30:38;;;;;;;;;1.00;1.00;;;;;18.65;48.90;101815.78;5091180;27;46172;-82
2022/07/02 00:33:04;;;;;;;;;1.33;1.33;;;;;18.76;49.60;101848.47;5080847;27;45452;-81
2022/07/02 00:35:30;;;;;;;;;1.00;1.00;;;;;18.62;49.30;101832.19;5079641;27;47228;-81
2022/07/02 00:37:56;;;;;;;;;2.67;2.67;;;;;18.71;49.74;101850.53;5079863;27;45476;-81
2022/07/02 00:40:23;;;;;;;;;2.33;2.00;;;;;18.67;49.74;101843.56;5091081;27;46942;-81
2022/07/02 00:42:48;;;;;;;;;2.00;2.00;;;;;18.61;50.16;101838.53;5077728;27;45585;-81
2022/07/02 00:45:17;;;;;;;;;2.33;2.00;;;;;18.62;50.29;101844.81;5098094;27;45415;-81
2022/07/02 00:47:43;;;;;;;;;2.00;1.00;;;;;18.43;49.71;101813.53;5071944;27;45569;-81
2022/07/02 00:50:09;;;;;;;;;2.67;2.67;;;;;18.59;50.23;101839.59;5080457;27;46601;-83
2022/07/02 00:52:35;;;;;;;;;4.00;3.00;;;;;18.46;50.47;101820.56;5081884;27;46210;-82
2022/07/02 00:55:01;;;;;;;;;2.00;2.00;;;;;18.56;50.50;101827.16;5075667;27;45322;-82
2022/07/02 00:57:27;;;;;;;;;3.00;2.00;;;;;18.52;50.40;101831.88;5077470;27;45517;-82
2022/07/02 00:59:52;;;;;;;;;2.00;2.00;;;;;18.51;50.51;101831.97;5085358;27;46345;-82
2022/07/02 01:02:21;;;;;;;;;2.00;2.00;;;;;18.48;50.68;101833.00;5085469;27;45409;-81
2022/07/02 01:04:48;;;;;;;;;4.00;2.00;;;;;18.45;50.85;101826.91;5080986;27;45492;-82
2022/07/02 01:07:15;;;;;;;;;6.00;2.00;;;;;18.31;50.34;101807.03;5078582;27;45578;-82
2022/07/02 01:12:29;;;;;;;;;3.67;2.33;;;;;18.35;50.87;101829.28;5078139;27;45626;-81
2022/07/02 01:14:56;;;;;;;;;2.00;2.00;;;;;18.36;51.72;101828.34;5074454;27;45398;-82
2022/07/02 01:17:22;;;;;;;;;3.00;2.00;;;;;18.33;51.58;101832.09;5085754;27;45583;-82
2022/07/02 01:19:48;;;;;;;;;3.67;2.33;;;;;18.29;52.09;101830.53;5085494;27;47234;-82
2022/07/02 01:22:22;;;;;;;;;2.00;2.00;;;;;18.28;52.45;101838.72;5073013;27;45312;-82
2022/07/02 01:24:49;;;;;;;;;2.00;2.00;;;;;18.23;52.67;101832.72;5080033;27;46315;-82
2022/07/02 01:27:16;;;;;;;;;2.00;2.00;;;;;18.24;52.62;101837.16;5086383;27;45736;-82
2022/07/02 01:29:41;;;;;;;;;2.00;2.00;;;;;18.18;53.02;101824.91;5087970;27;46031;-82
2022/07/02 01:32:08;;;;;;;;;5.00;2.00;;;;;18.27;53.25;101842.38;5076242;27;45368;-82
2022/07/02 01:35:00;;;;;;;;;2.00;1.00;;;;;18.27;53.55;101840.56;5077730;27;45618;-82
2022/07/02 01:37:26;;;;;;;;;3.00;3.00;;;;;18.31;53.71;101855.63;5076611;27;45547;-81
2022/07/02 01:39:51;;;;;;;;;2.00;2.00;;;;;18.31;53.86;101855.63;5075226;27;46630;-81
2022/07/02 01:42:17;;;;;;;;;1.00;1.00;;;;;18.33;54.08;101852.81;5073013;27;45292;-82
2022/07/02 01:44:44;;;;;;;;;4.00;2.00;;;;;18.32;54.18;101851.06;5083583;27;45450;-82
2022/07/02 01:47:10;;;;;;;;;5.00;1.67;;;;;18.27;54.00;101845.94;5088482;27;45568;-82
2022/07/02 01:49:37;;;;;;;;;1.00;1.00;;;;;18.26;54.25;101846.91;5094267;27;47207;-81
2022/07/02 01:52:04;;;;;;;;;2.00;2.00;;;;;18.28;54.60;101846.81;5087002;27;45513;-82
2022/07/02 01:54:30;;;;;;;;;2.00;2.00;;;;;18.29;54.45;101848.56;5088572;27;45334;-81
2022/07/02 01:56:56;;;;;;;;;3.00;2.00;;;;;18.18;54.50;101824.03;5078344;27;45675;-81
2022/07/02 01:59:21;;;;;;;;;3.00;3.00;;;;;18.31;54.58;101844.81;5075609;27;47465;-82
2022/07/02 02:01:47;;;;;;;;;3.00;3.00;;;;;18.28;54.79;101846.81;5080086;27;45433;-82
2022/07/02 02:04:12;;;;;;;;;4.00;3.00;;;;;18.25;54.94;101849.69;5078749;27;45516;-83
2022/07/02 02:06:38;;;;;;;;;2.67;2.67;;;;;18.29;55.22;101840.47;5074683;27;45659;-83
2022/07/02 02:09:04;;;;;;;;;0.00;0.00;;;;;18.13;54.51;101822.47;5076533;27;47079;-82
2022/07/02 02:11:30;;;;;;;;;2.00;2.00;;;;;18.21;54.96;101835.50;5077911;27;45651;-81
2022/07/02 02:13:59;;;;;;;;;3.00;1.67;;;;;18.22;55.55;101836.41;5077305;27;45665;-81
2022/07/02 02:16:27;;;;;;;;;3.00;3.00;;;;;18.17;55.76;101835.75;5077008;27;45616;-81
2022/07/02 02:18:53;;;;;;;;;3.00;2.00;;;;;18.16;55.45;101834.91;5074042;27;46342;-82
2022/07/02 02:21:19;;;;;;;;;3.00;3.00;;;;;18.05;55.73;101821.16;5091050;27;45509;-81
2022/07/02 02:23:44;;;;;;;;;2.00;2.00;;;;;18.10;55.66;101832.59;5086619;27;46280;-81
2022/07/02 02:26:13;;;;;;;;;2.67;1.67;;;;;18.07;56.46;101832.75;5075407;27;45496;-82
2022/07/02 02:28:38;;;;;;;;;3.00;3.00;;;;;18.03;55.99;101825.81;5073374;27;45891;-80
2022/07/02 02:31:04;;;;;;;;;4.00;4.00;;;;;17.99;56.14;101825.09;5072819;27;45455;-82
2022/07/02 02:33:29;;;;;;;;;4.00;2.33;;;;;17.96;56.03;101822.59;5088536;27;45622;-81
2022/07/02 02:35:55;;;;;;;;;3.00;3.00;;;;;17.93;56.59;101822.75;5077201;27;45458;-82
2022/07/02 02:38:20;;;;;;;;;3.00;3.00;;;;;17.89;57.06;101821.19;5079719;27;46081;-81
2022/07/02 02:40:45;;;;;;;;;2.33;2.33;;;;;17.83;56.69;101819.69;5074034;27;45446;-82
2022/07/02 02:43:11;;;;;;;;;2.33;2.00;;;;;17.78;56.46;101819.06;5084769;27;47424;-81
2022/07/02 02:45:36;;;;;;;;;3.00;3.00;;;;;17.81;57.09;101824.31;5079289;27;45327;-82
2022/07/02 02:48:02;;;;;;;;;4.00;3.00;;;;;17.68;57.03;101804.38;5076650;27;45439;-81
2022/07/02 02:50:27;;;;;;;;;2.67;2.67;;;;;17.71;57.17;101821.25;5085207;27;45838;-81
2022/07/02 02:52:53;;;;;;;;;2.00;2.00;;;;;17.75;57.16;101818.34;5086095;27;45283;-82
2022/07/02 02:55:18;;;;;;;;;4.00;2.00;;;;;17.69;57.05;101815.06;5073976;27;45335;-80
2022/07/02 02:57:43;;;;;;;;;4.00;4.00;;;;;17.61;57.28;101798.47;5076406;27;46139;-82
2022/07/02 03:00:09;;;;;;;;;3.67;3.00;;;;;17.51;57.42;101798.13;5074740;27;45480;-82
2022/07/02 03:02:35;;;;;;;;;3.33;3.33;;;;;17.63;57.85;101812.72;5072134;27;45488;-81
2022/07/02 03:05:00;;;;;;;;;4.00;2.33;;;;;17.61;57.99;101819.16;5077830;27;45621;-82
2022/07/02 03:07:26;;;;;;;;;2.33;2.00;;;;;17.57;58.46;101814.91;5084741;27;46806;-81
2022/07/02 03:09:51;;;;;;;;;4.67;3.33;;;;;17.56;57.79;101819.41;5079877;27;45484;-82
2022/07/02 03:12:16;;;;;;;;;3.00;3.00;;;;;17.54;58.33;101821.31;5083376;27;46170;-81
2022/07/02 03:14:42;;;;;;;;;4.00;4.00;;;;;17.54;58.25;101823.16;5074657;27;45409;-82
2022/07/02 03:17:07;;;;;;;;;2.33;2.33;;;;;17.52;58.22;101821.41;5083192;27;45452;-82
2022/07/02 03:19:33;;;;;;;;;2.33;2.00;;;;;17.44;57.95;101814.69;5083555;27;45330;-81
2022/07/02 03:21:58;;;;;;;;;4.67;3.00;;;;;17.49;58.39;101826.97;5082744;27;46018;-82
2022/07/02 03:24:24;;;;;;;;;4.00;4.00;;;;;17.32;58.26;101807.28;5075265;27;45580;-82
2022/07/02 03:26:49;;;;;;;;;6.33;4.67;;;;;17.42;58.39;101827.38;5073194;27;45925;-82
2022/07/02 03:29:14;;;;;;;;;2.00;2.00;;;;;17.33;58.37;101811.75;5076773;27;45561;-82
2022/07/02 03:31:39;;;;;;;;;5.33;4.00;;;;;17.40;58.94;101823.94;5076307;27;48471;-82
2022/07/02 03:34:05;;;;;;;;;5.00;3.33;;;;;17.35;58.67;101818.78;5078569;27;45432;-82
2022/07/02 03:36:30;;;;;;;;;2.33;2.00;;;;;17.35;59.01;101820.59;5073427;27;46696;-81
2022/07/02 03:38:55;;;;;;;;;3.00;3.00;;;;;17.32;59.03;101821.63;5079113;27;45448;-81
2022/07/02 03:41:21;;;;;;;;;3.00;2.33;;;;;17.25;58.91;101809.44;5072450;27;45437;-82
2022/07/02 03:43:49;;;;;;;;;3.33;3.33;;;;;17.25;59.39;101817.53;5084843;27;45580;-81
2022/07/02 03:46:16;;;;;;;;;3.00;3.00;;;;;17.22;59.37;101821.25;5072310;27;46220;-81
2022/07/02 03:48:41;;;;;;;;;7.00;4.00;;;;;17.23;59.75;101819.44;5082745;27;45512;-81
2022/07/02 03:51:07;;;;;;;;;2.00;2.00;;;;;17.22;59.32;101825.78;5094476;27;46003;-81
2022/07/02 03:53:32;;;;;;;;;5.00;2.33;;;;;17.08;59.44;101803.16;5080380;27;45686;-82
2022/07/02 03:55:57;;;;;;;;;2.67;2.67;;;;;17.05;59.60;101808.72;5085534;27;47328;-82
2022/07/02 03:58:23;;;;;;;;;4.00;2.33;;;;;17.18;59.60;101825.06;5078345;27;45547;-81
2022/07/02 04:00:48;;;;;;;;;3.33;3.33;;;;;17.12;60.04;101814.66;5076274;27;45468;-81
2022/07/02 04:03:13;;;;;;;;;2.33;2.33;;;;;17.14;60.02;101817.25;5091153;27;45893;-82
2022/07/02 04:05:39;;;;;;;;;4.00;3.00;;;;;17.06;60.13;101814.97;5081902;27;45958;-81
2022/07/02 04:08:04;;;;;;;;;7.00;4.00;;;;;17.13;60.40;101818.19;5080587;27;45988;-81
2022/07/02 04:10:29;;;;;;;;;4.00;4.00;;;;;17.04;60.36;101809.69;5078001;27;45985;-80
2022/07/02 04:12:55;;;;;;;;;2.67;2.00;;;;;17.09;60.45;101820.19;5076847;27;45473;-81
2022/07/02 04:15:20;;;;;;;;;2.33;2.33;;;;;17.08;60.54;101829.22;5076889;27;46978;-81
2022/07/02 04:17:45;;;;;;;;;3.33;3.33;;;;;17.07;60.30;101825.66;5084886;27;45636;-82
2022/07/02 04:20:11;;;;;;;;;5.00;3.00;;;;;16.80;60.44;101773.28;5087396;27;53585;-82
2022/07/02 04:22:36;;;;;;;;;2.67;2.67;;;;;17.06;60.58;101821.22;5069287;27;45386;-81
2022/07/02 04:25:02;;;;;;;;;4.00;3.00;;;;;17.06;60.74;101823.03;5076985;27;46075;-81
2022/07/02 04:27:27;;;;;;;;;4.00;4.00;;;;;17.06;60.70;101825.75;5077329;27;45416;-82
2022/07/02 04:29:53;;;;;;;;;3.33;3.33;;;;;17.03;60.87;101821.38;5078303;27;45370;-81
2022/07/02 04:32:18;;;;;;;;;2.00;2.00;;;;;17.08;60.50;101822.00;5078985;27;45480;-81
2022/07/02 04:34:43;;;;;;;;;5.67;3.33;;;;;17.13;61.05;101829.84;5078359;27;45432;-81
2022/07/02 04:37:09;;;;;;;;;4.33;3.67;;;;;17.00;60.63;101802.72;5074806;27;45556;-82
2022/07/02 04:39:34;;;;;;;;;2.67;2.67;;;;;17.17;60.67;101826.03;5076776;27;45673;-82
2022/07/02 04:41:59;;;;;;;;;5.00;3.67;;;;;17.09;60.58;101813.00;5079646;27;45539;-82
2022/07/02 04:44:25;;;;;;;;;3.00;2.00;;;;;17.21;60.63;101827.63;5097037;27;45917;-81
2022/07/02 04:46:51;;;;;;;;;3.00;3.00;;;;;17.13;60.89;101810.97;5082062;27;45433;-82
2022/07/02 04:49:17;;;;;;;;;4.00;4.00;;;;;17.26;60.73;101836.31;5086974;27;45387;-82
2022/07/02 04:51:42;;;;;;;;;3.00;3.00;;;;;17.28;60.67;101823.63;5083103;27;45578;-82
2022/07/02 04:54:07;;;;;;;;;7.00;4.00;;;;;17.31;61.22;101827.97;5075969;27;46325;-81
2022/07/02 04:56:33;;;;;;;;;4.67;3.00;;;;;17.33;61.14;101830.59;5076736;27;47307;-82
2022/07/02 04:58:59;;;;;;;;;4.00;4.00;;;;;17.20;60.90;101800.75;5081690;27;45480;-82
2022/07/02 05:01:24;;;;;;;;;6.67;6.00;;;;;17.29;60.95;101811.88;5077190;27;45442;-82
2022/07/02 05:03:51;;;;;;;;;3.00;3.00;;;;;17.20;60.92;101790.84;5076682;27;46294;-81
2022/07/02 05:06:18;;;;;;;;;6.00;5.00;;;;;17.41;60.68;101822.94;5085223;27;45777;-82
2022/07/02 05:08:44;;;;;;;;;5.67;5.67;;;;;17.34;60.56;101800.84;5083955;27;45415;-81
2022/07/02 05:11:09;;;;;;;;;4.00;4.00;;;;;17.50;60.80;101826.00;5087275;27;46650;-82
2022/07/02 05:13:34;;;;;;;;;7.00;4.00;;;;;17.54;60.68;101831.25;5077891;27;48201;-82
2022/07/02 05:16:00;;;;;;;;;5.00;5.00;;;;;17.38;60.32;101798.88;5075948;27;45637;-82
2022/07/02 05:18:26;;;;;;;;;5.00;5.00;;;;;17.61;60.33;101835.34;5083845;27;45935;-82
2022/07/02 05:20:51;;;;;;;;;5.00;5.00;;;;;17.52;60.41;101807.06;5076284;27;46054;-82
2022/07/02 05:23:16;;;;;;;;;6.67;6.00;;;;;17.64;60.23;101824.38;5073036;27;46364;-81
2022/07/02 05:25:42;;;;;;;;;6.33;4.33;;;;;17.65;60.72;101809.94;5093265;27;45483;-81
2022/07/02 05:28:07;;;;;;;;;4.67;4.67;;;;;17.61;60.41;101803.84;5072207;28;45771;-81
2022/07/02 05:30:33;;;;;;;;;4.67;4.33;;;;;17.72;59.92;101811.31;5076272;27;45485;-82
2022/07/02 05:32:58;;;;;;;;;3.67;3.67;;;;;17.88;60.22;101824.84;5076829;27;47119;-82
2022/07/02 05:35:23;;;;;;;;;9.00;4.00;;;;;17.83;59.82;101808.91;5075461;27;45436;-82
2022/07/02 05:37:49;;;;;;;;;4.00;4.00;;;;;17.96;59.99;101833.38;5076071;27;45601;-81
2022/07/02 05:40:14;;;;;;;;;6.67;4.00;;;;;17.99;59.64;101827.78;5080810;27;45359;-81
2022/07/02 05:42:39;;;;;;;;;5.00;5.00;;;;;18.06;59.36;101831.00;5077440;27;49929;-82
2022/07/02 05:45:05;;;;;;;;;6.00;5.33;;;;;18.16;59.11;101828.66;5097141;27;45405;-81
2022/07/02 05:47:31;;;;;;;;;5.67;5.67;;;;;18.17;58.73;101804.28;5075123;27;46974;-82
2022/07/02 05:49:56;;;;;;;;;5.33;5.00;;;;;18.33;58.48;101817.72;5089431;27;45644;-82
2022/07/02 05:52:22;;;;;;;;;5.00;4.00;;;;;18.33;58.28;101817.72;5088996;27;45440;-81
2022/07/02 05:54:47;;;;;;;;;5.67;4.00;;;;;18.38;58.20;101823.72;5076294;27;45451;-82
2022/07/02 05:57:12;;;;;;;;;5.33;4.00;;;;;18.23;57.94;101792.25;5072770;27;45600;-81
2022/07/02 05:59:38;;;;;;;;;7.00;7.00;;;;;18.39;57.34;101808.41;5075283;27;45445;-84
2022/07/02 06:02:04;;;;;;;;;8.33;5.00;;;;;18.53;57.24;101824.63;5084521;27;47127;-81
2022/07/02 06:04:31;;;;;;;;;4.67;4.00;;;;;18.56;57.38;101822.59;5090643;27;45396;-81
2022/07/02 06:09:40;;;;;;;;;7.33;5.33;;;;;18.78;57.21;101815.97;5083853;27;45496;-84
2022/07/02 06:12:06;;;;;;;;;30.33;29.00;;;;;18.88;56.50;101819.81;5072196;27;46363;-80
2022/07/02 06:14:32;;;;;;;;;8.67;8.33;;;;;18.83;56.83;101791.38;5072979;27;45413;-80
2022/07/02 06:16:57;;;;;;;;;6.00;6.00;;;;;19.01;56.61;101801.03;5079956;27;45303;-80
2022/07/02 06:19:22;;;;;;;;;7.00;5.00;;;;;19.18;55.06;101817.06;5078848;27;45466;-81
2022/07/02 06:21:48;;;;;;;;;5.67;5.67;;;;;19.14;55.80;101802.00;5077726;27;45609;-81
2022/07/02 06:24:13;;;;;;;;;6.00;4.33;;;;;19.30;55.08;101817.25;5078698;27;45561;-81
2022/07/02 06:26:38;;;;;;;;;5.67;5.67;;;;;19.23;52.92;101789.72;5087107;27;45370;-80
2022/07/02 06:29:04;;;;;;;;;5.67;5.00;;;;;19.48;51.88;101818.78;5076184;27;45796;-79
2022/07/02 06:31:30;;;;;;;;;3.33;3.33;;;;;19.57;51.50;101820.91;5079202;27;46247;-80
2022/07/02 06:33:55;;;;;;;;;9.00;7.33;;;;;19.47;51.98;101784.59;5074277;27;46446;-80
2022/07/02 06:36:22;;;;;;;;;6.00;5.33;;;;;19.73;51.57;101814.50;5082105;27;45465;-80
2022/07/02 06:38:48;;;;;;;;;3.67;3.67;;;;;19.79;50.46;101803.31;5069197;27;45409;-79
2022/07/02 06:44:04;;;;;;;;;4.67;4.67;;;;;19.95;49.97;101812.16;5033086;28;45611;-80
2022/07/02 06:46:29;;;;;;;;;5.33;4.33;;;;;19.89;49.83;101787.31;5032884;28;45594;-80
2022/07/02 06:48:54;;;;;;;;;95.25;79.00;;;;;20.07;49.75;101805.03;5032733;28;46060;-82
2022/07/02 06:51:20;;;;;;;;;5.67;5.67;;;;;20.14;49.98;101808.22;5038771;28;46470;-82
2022/07/02 06:53:46;;;;;;;;;6.00;6.00;;;;;20.09;49.11;101770.63;5039774;28;45524;-79
2022/07/02 06:56:11;;;;;;;;;4.33;4.33;;;;;20.30;48.93;101800.78;5028710;28;46804;-79
2022/07/02 06:58:36;;;;;;;;;6.33;6.00;;;;;20.38;48.76;101809.25;5044475;28;45567;-80
2022/07/02 07:01:02;;;;;;;;;7.00;6.67;;;;;20.46;48.29;101808.72;5040601;28;47092;-79
2022/07/02 07:03:27;;;;;;;;;6.33;6.33;;;;;20.53;47.46;101809.16;5039825;28;45543;-79
2022/07/02 07:05:53;;;;;;;;;3.00;3.00;;;;;20.31;47.60;101763.75;5036834;28;45402;-81
2022/07/02 07:08:18;;;;;;;;;4.00;3.00;;;;;20.69;48.58;101807.16;5033582;28;45687;-80
2022/07/02 07:10:44;;;;;;;;;4.00;4.00;;;;;20.74;47.70;101801.44;5044125;28;45819;-79
2022/07/02 07:13:09;;;;;;;;;2.00;2.00;;;;;20.80;45.40;101803.72;5048060;28;45502;-78
2022/07/02 07:15:35;;;;;;;;;2.00;2.00;;;;;20.66;45.31;101773.03;5038152;28;45502;-80
2022/07/02 07:18:00;;;;;;;;;1.67;1.67;;;;;20.82;44.73;101788.22;5036468;28;45620;-80
2022/07/02 07:20:29;;;;;;;;;2.00;1.00;;;;;20.89;44.91;101784.09;5038541;28;47036;-81
2022/07/02 07:22:55;;;;;;;;;1.33;1.00;;;;;21.07;43.90;101792.75;5081105;27;45542;-81
2022/07/02 07:25:21;;;;;;;;;1.00;1.00;;;;;21.12;43.58;101801.44;5076186;27;45351;-80
2022/07/02 07:27:47;;;;;;;;;1.00;1.00;;;;;21.21;43.27;101799.91;5082374;27;45576;-79
2022/07/02 07:30:13;;;;;;;;;3.00;2.00;;;;;21.26;44.53;101787.75;5078900;27;46372;-81
2022/07/02 07:32:38;;;;;;;;;0.67;0.67;;;;;21.13;43.07;101758.94;5075201;27;45660;-81
2022/07/02 07:35:05;;;;;;;;;2.00;1.00;;;;;21.39;42.19;101795.88;5092504;27;45434;-81
2022/07/02 07:37:30;;;;;;;;;0.33;0.33;;;;;21.38;42.12;101782.44;5081339;27;45407;-81
2022/07/02 07:39:56;;;;;;;;;0.00;0.00;;;;;21.50;41.12;101793.28;5071428;27;46940;-81
2022/07/02 07:42:22;;;;;;;;;0.00;0.00;;;;;21.53;41.07;101792.19;5082100;27;45452;-80
2022/07/02 07:44:49;;;;;;;;;1.00;1.00;;;;;21.51;41.03;101775.13;5077968;27;45473;-78
2022/07/02 07:47:14;;;;;;;;;0.33;0.33;;;;;21.59;40.34;101783.59;5078651;27;45515;-80
2022/07/02 07:49:39;;;;;;;;;1.00;0.00;;;;;21.50;40.27;101759.84;5073822;27;45996;-79
2022/07/02 07:52:05;;;;;;;;;0.00;0.00;;;;;21.55;39.53;101762.22;5082727;27;46571;-80
2022/07/02 07:54:30;;;;;;;;;1.00;0.00;;;;;21.59;39.49;101772.75;5081496;27;45442;-81
2022/07/02 07:56:56;;;;;;;;;0.33;0.33;;;;;21.74;40.02;101787.00;5091931;27;45443;-81
2022/07/02 07:59:21;;;;;;;;;0.00;0.00;;;;;21.55;39.95;101740.53;5078571;27;46149;-83
2022/07/02 08:01:47;;;;;;;;;1.00;0.00;;;;;21.86;38.84;101779.81;5076419;27;45439;-81
2022/07/02 08:04:12;;;;;;;;;1.00;1.00;;;;;21.92;41.13;101788.34;5082271;27;45467;-81
2022/07/02 08:06:38;;;;;;;;;2.00;0.00;;;;;21.85;38.83;101759.09;5084188;27;46339;-79
2022/07/02 08:09:03;;;;;;;;;0.33;0.00;;;;;21.91;38.78;101767.63;5080461;27;46477;-79
2022/07/02 08:11:29;;;;;;;;;0.00;0.00;;;;;22.07;38.85;101782.75;5079137;27;45304;-79
2022/07/02 08:13:54;;;;;;;;;0.00;0.00;;;;;21.96;37.92;101760.97;5088176;27;45866;-81
2022/07/02 08:16:20;;;;;;;;;0.00;0.00;;;;;22.04;38.43;101766.69;5083718;27;45649;-80
2022/07/02 08:18:45;;;;;;;;;0.00;0.00;;;;;22.09;37.76;101767.22;5078902;27;45682;-81
2022/07/02 08:21:10;;;;;;;;;0.00;0.00;;;;;22.18;39.09;101777.38;5095206;27;45426;-80
2022/07/02 08:23:36;;;;;;;;;0.00;0.00;;;;;22.13;38.34;101758.72;5090127;27;49096;-81
2022/07/02 08:26:02;;;;;;;;;1.67;1.00;;;;;22.20;40.67;101758.25;5082974;27;45438;-85
2022/07/02 08:28:27;;;;;;;;;1.00;1.00;;;;;22.39;37.83;101774.88;5092146;27;46327;-80
2022/07/02 08:30:53;;;;;;;;;1.00;1.00;;;;;22.45;37.83;101769.00;5081744;27;45558;-79
2022/07/02 08:33:18;;;;;;;;;0.00;0.00;;;;;22.40;38.69;101749.44;5080261;27;45411;-79
2022/07/02 08:35:44;;;;;;;;;0.00;0.00;;;;;22.30;37.11;101716.69;5079972;27;45576;-81
2022/07/02 08:38:10;;;;;;;;;1.00;1.00;;;;;22.61;37.35;101765.06;5086587;27;46693;-81
2022/07/02 08:40:40;;;;;;;;;1.00;1.00;;;;;22.69;36.98;101749.88;5077407;27;45916;-80
2022/07/02 08:43:07;;;;;;;;;0.00;0.00;;;;;22.77;37.07;101739.25;5082537;27;45852;-80
2022/07/02 08:45:33;;;;;;;;;0.00;0.00;;;;;23.02;36.42;101742.78;5092911;27;45397;-80
2022/07/02 08:47:59;;;;;;;;;0.00;0.00;;;;;24.04;35.19;101761.66;5093331;27;46502;-82
2022/07/02 08:50:26;;;;;;;;;0.00;0.00;;;;;24.43;34.64;101760.97;5085717;27;46754;-82
2022/07/02 08:52:52;;;;;;;;;0.00;0.00;;;;;25.81;33.27;101749.69;5091946;27;45447;-83
2022/07/02 08:55:21;;;;;;;;;0.00;0.00;;;;;26.50;31.02;101733.16;5085467;27;46313;-82
2022/07/02 08:57:48;;;;;;;;;1.00;0.00;;;;;28.13;28.50;101727.16;5081462;27;45592;-82
2022/07/02 09:00:16;;;;;;;;;0.67;0.67;;;;;30.10;26.44;101737.22;5083695;27;45373;-82
2022/07/02 09:02:42;;;;;;;;;2.00;0.00;;;;;31.57;25.26;101738.81;5081367;27;45468;-80
2022/07/02 09:05:10;;;;;;;;;1.00;1.00;;;;;32.68;22.85;101722.75;5094469;27;45376;-78
2022/07/02 09:07:38;;;;;;;;;0.00;0.00;;;;;33.80;21.45;101723.41;5079199;27;47203;-81
2022/07/02 09:10:05;;;;;;;;;0.00;0.00;;;;;34.65;19.91;101704.16;5075583;27;45585;-80
2022/07/02 09:12:31;;;;;;;;;0.00;0.00;;;;;35.57;19.93;101677.09;5087032;27;45563;-82
2022/07/02 09:14:58;;;;;;;;;2.33;0.33;;;;;37.07;18.91;101725.56;5085011;27;45519;-83
2022/07/02 09:17:24;;;;;;;;;0.00;0.00;;;;;37.76;17.67;101698.91;5074479;27;45539;-90
2022/07/02 09:19:49;;;;;;;;;0.00;0.00;;;;;38.71;17.08;101711.00;5081307;27;45622;-85
2022/07/02 09:22:15;;;;;;;;;0.00;0.00;;;;;39.28;16.85;101683.72;5081559;27;45856;-89
2022/07/02 09:24:42;;;;;;;;;0.00;0.00;;;;;40.13;15.45;101718.94;5097933;27;45473;-88
2022/07/02 09:27:15;;;;;;;;;0.00;0.00;;;;;40.61;14.55;101638.81;5079829;27;46249;-88
2022/07/02 09:29:45;;;;;;;;;0.00;0.00;;;;;40.76;14.76;101627.97;5092536;27;45387;-85
2022/07/02 09:32:14;;;;;;;;;1.00;0.00;;;;;41.87;13.70;101748.00;5091809;27;45558;-88
2022/07/02 09:34:43;;;;;;;;;0.00;0.00;;;;;41.71;14.04;101656.44;5089974;27;45482;-87
2022/07/02 09:37:28;;;;;;;;;0.00;0.00;;;;;42.33;13.59;101633.06;5085830;27;48054;-87
2022/07/02 09:39:59;;;;;;;;;0.00;0.00;;;;;42.61;13.16;101682.53;5080670;27;45498;-93
2022/07/02 09:42:29;;;;;;;;;0.00;0.00;;;;;43.10;13.17;101682.63;5085297;27;45652;-86
2022/07/02 09:44:56;;;;;;;;;0.00;0.00;;;;;43.79;12.59;101712.06;5077731;27;45447;-89
2022/07/02 09:47:35;;;;;;;;;0.33;0.33;;;;;44.38;12.76;101742.91;5081990;27;46197;-91
2022/07/02 09:50:03;;;;;;;;;0.00;0.00;;;;;43.07;12.45;101742.09;5082895;27;46361;-87
2022/07/02 09:52:29;;;;;;;;;0.00;0.00;;;;;40.49;14.24;101717.94;5088320;27;45505;-85
2022/07/02 09:54:57;;;;;;;;;1.00;1.00;;;;;38.19;16.00;101712.09;5082397;27;45429;-95
2022/07/02 09:57:22;;;;;;;;;0.00;0.00;;;;;36.76;16.92;101621.56;5076035;27;45548;-90
2022/07/02 10:00:12;;;;;;;;;0.00;0.00;;;;;38.57;16.49;101746.50;5065195;27;46006;-88
2022/07/02 10:02:37;;;;;;;;;0.00;0.00;;;;;40.07;14.74;101690.06;5075416;27;45448;-88
2022/07/02 10:05:05;;;;;;;;;0.00;0.00;;;;;41.35;13.64;101686.50;5063314;28;45654;-88
2022/07/02 10:07:38;;;;;;;;;0.00;0.00;;;;;42.63;12.52;101744.81;5062861;27;46174;-87
2022/07/02 10:10:09;;;;;;;;;17.67;17.67;;;;;42.86;12.85;101636.34;5074972;27;45546;-85
2022/07/02 10:12:35;;;;;;;;;0.33;0.00;;;;;43.18;11.94;101698.19;5097593;27;45461;-87
2022/07/02 10:15:04;;;;;;;;;0.00;0.00;;;;;43.32;11.83;101685.44;5089837;27;45355;-87
2022/07/02 10:17:33;;;;;;;;;0.00;0.00;;;;;43.26;12.00;101717.38;5067528;27;47897;-86
2022/07/02 10:19:59;;;;;;;;;0.00;0.00;;;;;43.03;12.14;101714.81;5074268;27;45513;-83
2022/07/02 10:22:25;;;;;;;;;0.00;0.00;;;;;43.60;11.63;101709.59;5062818;27;45389;-87
2022/07/02 10:24:51;;;;;;;;;0.00;0.00;;;;;43.21;12.00;101667.63;5083632;27;45564;-85
2022/07/02 10:27:18;;;;;;;;;0.67;0.67;;;;;43.09;12.63;101694.13;5073909;27;45666;-88
2022/07/02 10:29:44;;;;;;;;;0.00;0.00;;;;;42.89;13.02;101711.53;5082899;27;45581;-85
2022/07/02 10:32:22;;;;;;;;;1.00;0.00;;;;;42.92;12.46;101714.69;5092487;27;45529;-86
2022/07/02 10:35:06;;;;;;;;;0.00;0.00;;;;;43.23;12.24;101703.88;5067219;27;45569;-87
2022/07/02 10:37:32;;;;;;;;;8.33;7.67;;;;;43.17;13.42;101696.47;5086343;27;45474;-85
2022/07/02 10:40:01;;;;;;;;;10.00;7.67;;;;;42.69;14.06;101698.09;5072879;27;45321;-88
2022/07/02 10:43:01;;;;;;;;;6.00;5.00;;;;;41.42;15.24;101641.59;5086360;27;45433;-92
2022/07/02 10:51:24;;;;;;;;;0.00;0.00;;;;;40.14;14.14;101647.19;5050661;22;71837;-91
2022/07/02 10:59:41;;;;;;;;;1.67;1.33;;;;;38.20;15.72;101563.41;5130750;22;73965;-87
2022/07/02 11:02:17;;;;;;;;;0.00;0.00;;;;;37.68;15.98;101507.19;5141032;22;45509;-91
2022/07/02 11:05:14;;;;;;;;;0.00;0.00;;;;;38.37;17.45;101650.00;5048248;28;45408;-91
2022/07/02 11:07:44;;;;;;;;;2.00;2.00;;;;;37.91;17.74;101634.56;5028156;28;45593;-89
2022/07/02 11:10:30;;;;;;;;;0.00;0.00;;;;;37.22;17.16;101605.72;5042450;28;46286;-90
2022/07/02 11:13:00;;;;;;;;;1.00;0.67;;;;;36.03;18.36;101479.25;5051656;28;45538;-93
2022/07/02 11:15:42;;;;;;;;;0.00;0.00;;;;;36.55;17.98;101569.88;5046658;28;45411;-90
2022/07/02 11:18:10;;;;;;;;;0.00;0.00;;;;;36.45;18.17;101550.03;5045594;28;45478;-85
2022/07/02 11:20:35;;;;;;;;;0.00;0.00;;;;;37.03;16.85;101662.25;5052220;28;45474;-89
2022/07/02 11:23:04;;;;;;;;;1.00;1.00;;;;;36.81;18.23;101642.25;5052421;28;45292;-95
2022/07/02 11:25:42;;;;;;;;;3.00;3.00;;;;;36.55;17.67;101608.78;5052567;28;45631;-85
2022/07/02 11:28:08;;;;;;;;;1.00;0.67;;;;;36.59;17.61;101650.03;5053926;28;45469;-93
2022/07/02 11:30:33;;;;;;;;;1.00;1.00;;;;;36.30;18.00;101647.50;5046259;28;45761;-87
2022/07/02 11:33:14;;;;;;;;;0.00;0.00;;;;;35.51;19.36;101593.66;5051856;28;45499;-87
2022/07/02 11:35:44;;;;;;;;;1.00;1.00;;;;;35.03;19.13;101567.97;5058323;28;45451;-85
2022/07/02 11:38:16;;;;;;;;;3.00;3.00;;;;;34.87;19.66;101611.59;5058365;28;45553;-83
2022/07/02 11:40:41;;;;;;;;;1.00;1.00;;;;;34.30;20.14;101567.59;5035532;28;46978;-84
2022/07/02 11:43:18;;;;;;;;;0.00;0.00;;;;;33.78;20.34;101558.72;5061423;28;45454;-83